Terminal Aerodrome Forecast
Issued by NWS Wilmington, OH

Current Version | Previous Version | Text Only | Print | Product List | Glossary Off
Versions: 1 2 3 4 5 6 7 8 9 10 11 12 13 14 15 16 17 18 19 20 21 22 23 24 25 26 27 28 29 30 31 32 33 34

000
FTUS41 KILN 251700
TAFCVG
TAF
KCVG 251725Z 2518/2624 25012KT P6SM SCT035
     FM252200 VRB03KT P6SM BKN025
     FM260600 VRB03KT P6SM SCT025
     FM261500 12005KT P6SM SCT035=

USA.gov is the U.S. government's official web portal to all federal, state and local government web resources and services.